sensor_id;sensor_type;location;lat;lon;timestamp;pressure;altitude;pressure_sealevel;temperature;humidity
33496;BME280;19836;55.812;37.560;2023-09-19T00:00:59;100134.06;;;12.49;83.17
33496;BME280;19836;55.812;37.560;2023-09-19T00:03:31;100136.78;;;12.47;83.31
33496;BME280;19836;55.812;37.560;2023-09-19T00:06:00;100135.84;;;12.48;83.36
33496;BME280;19836;55.812;37.560;2023-09-19T00:08:31;100140.22;;;12.52;83.25
33496;BME280;19836;55.812;37.560;2023-09-19T00:11:02;100138.16;;;12.60;83.39
33496;BME280;19836;55.812;37.560;2023-09-19T00:13:34;100130.91;;;12.62;83.08
33496;BME280;19836;55.812;37.560;2023-09-19T00:16:10;100139.81;;;12.64;82.88
33496;BME280;19836;55.812;37.560;2023-09-19T00:18:40;100137.97;;;12.66;82.76
33496;BME280;19836;55.812;37.560;2023-09-19T00:21:07;100142.44;;;12.66;82.73
33496;BME280;19836;55.812;37.560;2023-09-19T00:23:33;100136.13;;;12.67;82.60
33496;BME280;19836;55.812;37.560;2023-09-19T00:26:00;100137.19;;;12.63;82.54
33496;BME280;19836;55.812;37.560;2023-09-19T00:28:32;100134.53;;;12.61;82.60
33496;BME280;19836;55.812;37.560;2023-09-19T00:31:01;100130.00;;;12.63;82.51
33496;BME280;19836;55.812;37.560;2023-09-19T00:33:31;100135.28;;;12.66;82.72
33496;BME280;19836;55.812;37.560;2023-09-19T00:36:00;100136.06;;;12.70;82.54
33496;BME280;19836;55.812;37.560;2023-09-19T00:38:34;100133.38;;;12.70;82.29
33496;BME280;19836;55.812;37.560;2023-09-19T00:41:06;100135.25;;;12.68;82.13
33496;BME280;19836;55.812;37.560;2023-09-19T00:43:35;100136.13;;;12.67;82.06
33496;BME280;19836;55.812;37.560;2023-09-19T00:46:01;100141.59;;;12.65;82.24
33496;BME280;19836;55.812;37.560;2023-09-19T00:48:30;100142.50;;;12.64;82.22
33496;BME280;19836;55.812;37.560;2023-09-19T00:50:59;100138.06;;;12.63;82.04
33496;BME280;19836;55.812;37.560;2023-09-19T00:53:36;100129.16;;;12.61;82.16
33496;BME280;19836;55.812;37.560;2023-09-19T00:56:03;100132.78;;;12.60;81.91
33496;BME280;19836;55.812;37.560;2023-09-19T00:58:34;100132.78;;;12.60;81.87
33496;BME280;19836;55.812;37.560;2023-09-19T01:01:05;100140.00;;;12.58;82.08
33496;BME280;19836;55.812;37.560;2023-09-19T01:03:36;100140.91;;;12.59;81.99
33496;BME280;19836;55.812;37.560;2023-09-19T01:06:03;100139.94;;;12.61;81.70
33496;BME280;19836;55.812;37.560;2023-09-19T01:08:32;100130.03;;;12.62;81.82
33496;BME280;19836;55.812;37.560;2023-09-19T01:11:25;100134.44;;;12.64;81.89
33496;BME280;19836;55.812;37.560;2023-09-19T01:14:14;100137.06;;;12.66;81.51
33496;BME280;19836;55.812;37.560;2023-09-19T01:16:50;100130.91;;;12.62;81.37
33496;BME280;19836;55.812;37.560;2023-09-19T01:25:36;100123.38;;;12.73;80.88
33496;BME280;19836;55.812;37.560;2023-09-19T01:27:52;100118.00;;;12.73;80.75
33496;BME280;19836;55.812;37.560;2023-09-19T01:30:24;100125.31;;;12.70;80.57
33496;BME280;19836;55.812;37.560;2023-09-19T01:32:53;100133.31;;;12.71;80.51
33496;BME280;19836;55.812;37.560;2023-09-19T01:35:20;100120.75;;;12.72;80.70
33496;BME280;19836;55.812;37.560;2023-09-19T01:37:48;100126.91;;;12.75;80.22
33496;BME280;19836;55.812;37.560;2023-09-19T01:40:18;100131.25;;;12.79;80.47
33496;BME280;19836;55.812;37.560;2023-09-19T01:43:03;100124.97;;;12.80;80.14
33496;BME280;19836;55.812;37.560;2023-09-19T01:45:48;100121.34;;;12.81;79.95
33496;BME280;19836;55.812;37.560;2023-09-19T01:48:35;100121.34;;;12.81;80.21
33496;BME280;19836;55.812;37.560;2023-09-19T01:51:06;100104.22;;;12.84;79.77
33496;BME280;19836;55.812;37.560;2023-09-19T01:53:53;100104.00;;;12.90;79.55
33496;BME280;19836;55.812;37.560;2023-09-19T01:56:30;100100.34;;;12.92;79.43
33496;BME280;19836;55.812;37.560;2023-09-19T01:59:04;100103.78;;;12.97;79.39
33496;BME280;19836;55.812;37.560;2023-09-19T02:01:45;100110.88;;;13.00;79.43
33496;BME280;19836;55.812;37.560;2023-09-19T02:04:15;100102.75;;;13.01;79.01
33496;BME280;19836;55.812;37.560;2023-09-19T02:06:44;100100.09;;;13.00;78.75
33496;BME280;19836;55.812;37.560;2023-09-19T02:09:15;100092.09;;;12.98;79.05
33496;BME280;19836;55.812;37.560;2023-09-19T02:11:44;100095.78;;;12.94;78.82
33496;BME280;19836;55.812;37.560;2023-09-19T02:14:13;100086.94;;;12.91;79.00
33496;BME280;19836;55.812;37.560;2023-09-19T02:16:45;100083.34;;;12.90;79.00
33496;BME280;19836;55.812;37.560;2023-09-19T02:19:14;100076.34;;;12.86;78.96
33496;BME280;19836;55.812;37.560;2023-09-19T02:21:40;100080.88;;;12.84;78.96
33496;BME280;19836;55.812;37.560;2023-09-19T02:24:08;100079.25;;;12.80;78.83
33496;BME280;19836;55.812;37.560;2023-09-19T02:26:34;100077.59;;;12.76;79.12
33496;BME280;19836;55.812;37.560;2023-09-19T02:29:02;100073.22;;;12.72;78.72
33496;BME280;19836;55.812;37.560;2023-09-19T02:31:30;100078.59;;;12.72;78.99
33496;BME280;19836;55.812;37.560;2023-09-19T02:34:05;100083.00;;;12.75;79.03
33496;BME280;19836;55.812;37.560;2023-09-19T02:36:32;100072.41;;;12.70;78.84
33496;BME280;19836;55.812;37.560;2023-09-19T02:38:59;100076.22;;;12.63;79.35
33496;BME280;19836;55.812;37.560;2023-09-19T02:41:25;100068.38;;;12.57;79.31
33496;BME280;19836;55.812;37.560;2023-09-19T02:43:51;100075.69;;;12.52;79.32
33496;BME280;19836;55.812;37.560;2023-09-19T02:46:18;100071.34;;;12.48;79.31
33496;BME280;19836;55.812;37.560;2023-09-19T02:48:45;100074.97;;;12.47;79.64
33496;BME280;19836;55.812;37.560;2023-09-19T02:51:11;100076.84;;;12.45;79.67
33496;BME280;19836;55.812;37.560;2023-09-19T02:53:43;100075.00;;;12.46;79.52
33496;BME280;19836;55.812;37.560;2023-09-19T02:56:10;100092.03;;;12.46;79.48
33496;BME280;19836;55.812;37.560;2023-09-19T02:58:41;100081.28;;;12.46;79.26
33496;BME280;19836;55.812;37.560;2023-09-19T03:01:35;100082.06;;;12.50;79.39
33496;BME280;19836;55.812;37.560;2023-09-19T03:17:30;100087.91;;;12.62;78.61
33496;BME280;19836;55.812;37.560;2023-09-19T03:19:57;100086.97;;;12.63;78.40
33496;BME280;19836;55.812;37.560;2023-09-19T03:22:23;100084.16;;;12.68;78.64
33496;BME280;19836;55.812;37.560;2023-09-19T03:24:53;100091.25;;;12.70;78.65
33496;BME280;19836;55.812;37.560;2023-09-19T03:27:20;100086.63;;;12.74;78.69
33496;BME280;19836;55.812;37.560;2023-09-19T03:29:50;100084.72;;;12.77;78.47
33496;BME280;19836;55.812;37.560;2023-09-19T03:32:19;100087.31;;;12.80;78.35
33496;BME280;19836;55.812;37.560;2023-09-19T03:34:54;100088.00;;;12.85;78.57
33496;BME280;19836;55.812;37.560;2023-09-19T03:41:14;100086.69;;;12.98;77.90
33496;BME280;19836;55.812;37.560;2023-09-19T03:43:43;100087.59;;;12.99;77.93
33496;BME280;19836;55.812;37.560;2023-09-19T03:46:10;100092.00;;;13.01;77.76
33496;BME280;19836;55.812;37.560;2023-09-19T03:48:39;100087.41;;;13.03;77.62
33496;BME280;19836;55.812;37.560;2023-09-19T03:51:10;100088.38;;;13.02;77.81
33496;BME280;19836;55.812;37.560;2023-09-19T03:54:02;100073.97;;;13.03;77.72
33496;BME280;19836;55.812;37.560;2023-09-19T03:56:34;100071.25;;;13.05;77.84
33496;BME280;19836;55.812;37.560;2023-09-19T03:59:00;100076.63;;;13.05;77.68
33496;BME280;19836;55.812;37.560;2023-09-19T04:01:27;100074.78;;;13.05;77.74
33496;BME280;19836;55.812;37.560;2023-09-19T04:03:54;100076.56;;;13.06;77.81
33496;BME280;19836;55.812;37.560;2023-09-19T04:06:26;100082.72;;;13.10;77.73
33496;BME280;19836;55.812;37.560;2023-09-19T04:08:53;100073.69;;;13.11;77.33
33496;BME280;19836;55.812;37.560;2023-09-19T04:11:23;100060.25;;;13.11;77.07
33496;BME280;19836;55.812;37.560;2023-09-19T04:13:49;100071.91;;;13.11;77.29
33496;BME280;19836;55.812;37.560;2023-09-19T04:22:27;100055.31;;;13.23;76.57
33496;BME280;19836;55.812;37.560;2023-09-19T04:24:56;100053.56;;;13.22;76.51
33496;BME280;19836;55.812;37.560;2023-09-19T04:27:23;100049.94;;;13.23;76.19
33496;BME280;19836;55.812;37.560;2023-09-19T04:29:52;100047.19;;;13.25;76.23
33496;BME280;19836;55.812;37.560;2023-09-19T04:32:19;100050.66;;;13.28;76.17
33496;BME280;19836;55.812;37.560;2023-09-19T04:34:49;100053.25;;;13.31;76.26
33496;BME280;19836;55.812;37.560;2023-09-19T04:37:57;100044.00;;;13.38;76.18
33496;BME280;19836;55.812;37.560;2023-09-19T04:42:04;100045.50;;;13.45;75.64
33496;BME280;19836;55.812;37.560;2023-09-19T06:49:24;100017.59;;;15.98;70.46
33496;BME280;19836;55.812;37.560;2023-09-19T06:56:44;100008.13;;;16.62;68.36
33496;BME280;19836;55.812;37.560;2023-09-19T07:01:09;99995.91;;;16.89;67.62
33496;BME280;19836;55.812;37.560;2023-09-19T07:24:41;99994.19;;;18.03;64.35
33496;BME280;19836;55.812;37.560;2023-09-19T07:48:29;99976.31;;;17.99;64.28
33496;BME280;19836;55.812;37.560;2023-09-19T07:51:24;99988.31;;;17.95;64.45
33496;BME280;19836;55.812;37.560;2023-09-19T07:54:56;99974.41;;;18.16;64.33
33496;BME280;19836;55.812;37.560;2023-09-19T07:57:23;99973.47;;;18.48;63.59
33496;BME280;19836;55.812;37.560;2023-09-19T07:59:50;99982.09;;;18.70;62.79
33496;BME280;19836;55.812;37.560;2023-09-19T08:02:17;99975.53;;;18.74;62.71
33496;BME280;19836;55.812;37.560;2023-09-19T08:04:45;99960.69;;;18.80;62.35
33496;BME280;19836;55.812;37.560;2023-09-19T08:07:19;99962.09;;;18.87;62.16
33496;BME280;19836;55.812;37.560;2023-09-19T08:09:45;99967.09;;;18.79;61.96
33496;BME280;19836;55.812;37.560;2023-09-19T08:12:12;99960.06;;;18.61;62.14
33496;BME280;19836;55.812;37.560;2023-09-19T08:14:50;99958.25;;;18.46;62.40
33496;BME280;19836;55.812;37.560;2023-09-19T08:20:22;99958.78;;;18.06;63.28
33496;BME280;19836;55.812;37.560;2023-09-19T09:20:51;99928.06;;;18.95;63.11
33496;BME280;19836;55.812;37.560;2023-09-19T09:31:47;99933.91;;;19.03;62.60
33496;BME280;19836;55.812;37.560;2023-09-19T09:39:55;99920.69;;;19.27;62.23
33496;BME280;19836;55.812;37.560;2023-09-19T09:47:31;99915.53;;;19.78;61.16
33496;BME280;19836;55.812;37.560;2023-09-19T09:50:05;99904.41;;;19.95;60.44
33496;BME280;19836;55.812;37.560;2023-09-19T09:52:46;99910.09;;;20.19;60.08
33496;BME280;19836;55.812;37.560;2023-09-19T09:55:13;99911.69;;;21.13;59.43
33496;BME280;19836;55.812;37.560;2023-09-19T09:57:39;99900.47;;;23.21;55.81
33496;BME280;19836;55.812;37.560;2023-09-19T10:00:07;99899.53;;;23.55;53.68
33496;BME280;19836;55.812;37.560;2023-09-19T10:02:39;99895.63;;;23.25;53.21
33496;BME280;19836;55.812;37.560;2023-09-19T10:05:13;99894.06;;;23.10;53.01
33496;BME280;19836;55.812;37.560;2023-09-19T10:07:50;99882.59;;;22.94;53.12
33496;BME280;19836;55.812;37.560;2023-09-19T10:10:36;99882.69;;;22.81;53.19
33496;BME280;19836;55.812;37.560;2023-09-19T10:13:13;99883.25;;;22.63;53.37
33496;BME280;19836;55.812;37.560;2023-09-19T10:15:47;99877.13;;;22.83;53.20
33496;BME280;19836;55.812;37.560;2023-09-19T10:18:22;99871.28;;;23.33;52.22
33496;BME280;19836;55.812;37.560;2023-09-19T10:20:48;99868.88;;;24.27;50.98
33496;BME280;19836;55.812;37.560;2023-09-19T10:23:17;99864.75;;;25.67;48.70
33496;BME280;19836;55.812;37.560;2023-09-19T10:25:48;99862.97;;;26.45;46.61
33496;BME280;19836;55.812;37.560;2023-09-19T10:28:16;99859.06;;;25.89;45.87
33496;BME280;19836;55.812;37.560;2023-09-19T10:30:44;99857.19;;;26.38;45.54
33496;BME280;19836;55.812;37.560;2023-09-19T10:33:14;99851.25;;;27.74;43.93
33496;BME280;19836;55.812;37.560;2023-09-19T10:35:45;99848.50;;;28.55;41.97
33496;BME280;19836;55.812;37.560;2023-09-19T10:38:18;99851.25;;;27.84;42.08
33496;BME280;19836;55.812;37.560;2023-09-19T10:40:51;99844.22;;;26.78;43.37
33496;BME280;19836;55.812;37.560;2023-09-19T10:43:20;99853.88;;;25.95;44.75
33496;BME280;19836;55.812;37.560;2023-09-19T10:45:49;99848.31;;;25.76;45.20
33496;BME280;19836;55.812;37.560;2023-09-19T10:48:16;99844.38;;;25.39;45.79
33496;BME280;19836;55.812;37.560;2023-09-19T10:50:49;99851.19;;;25.24;46.14
33496;BME280;19836;55.812;37.560;2023-09-19T10:53:17;99844.47;;;25.58;45.86
33496;BME280;19836;55.812;37.560;2023-09-19T10:55:58;99838.06;;;26.27;45.12
33496;BME280;19836;55.812;37.560;2023-09-19T10:58:30;99846.19;;;26.29;44.31
33496;BME280;19836;55.812;37.560;2023-09-19T11:01:00;99842.31;;;25.92;44.78
33496;BME280;19836;55.812;37.560;2023-09-19T11:03:38;99846.31;;;26.37;44.24
33496;BME280;19836;55.812;37.560;2023-09-19T11:06:11;99839.09;;;28.21;42.17
33496;BME280;19836;55.812;37.560;2023-09-19T11:08:58;99829.59;;;29.97;38.97
33496;BME280;19836;55.812;37.560;2023-09-19T11:14:38;99828.19;;;32.18;35.62
33496;BME280;19836;55.812;37.560;2023-09-19T11:25:42;99823.97;;;30.88;35.01
33496;BME280;19836;55.812;37.560;2023-09-19T11:30:48;99824.84;;;28.70;37.55
33496;BME280;19836;55.812;37.560;2023-09-19T11:33:19;99817.28;;;27.56;39.43
33496;BME280;19836;55.812;37.560;2023-09-19T11:36:14;99818.56;;;26.49;41.53
33496;BME280;19836;55.812;37.560;2023-09-19T11:46:31;99804.78;;;25.62;43.98
33496;BME280;19836;55.812;37.560;2023-09-19T11:49:09;99806.84;;;25.19;44.86
33496;BME280;19836;55.812;37.560;2023-09-19T11:51:43;99807.75;;;24.79;45.73
33496;BME280;19836;55.812;37.560;2023-09-19T11:54:16;99802.72;;;24.63;46.28
33496;BME280;19836;55.812;37.560;2023-09-19T11:56:44;99798.06;;;24.43;46.75
33496;BME280;19836;55.812;37.560;2023-09-19T11:59:11;99810.75;;;24.76;47.06
33496;BME280;19836;55.812;37.560;2023-09-19T12:01:51;99790.16;;;25.52;45.93
33496;BME280;19836;55.812;37.560;2023-09-19T12:04:42;99790.53;;;25.87;45.11
33496;BME280;19836;55.812;37.560;2023-09-19T12:07:14;99778.63;;;26.07;44.84
33496;BME280;19836;55.812;37.560;2023-09-19T12:09:45;99782.31;;;25.87;45.03
33496;BME280;19836;55.812;37.560;2023-09-19T12:12:26;99772.19;;;25.18;45.88
33496;BME280;19836;55.812;37.560;2023-09-19T12:14:53;99771.13;;;25.00;46.67
33496;BME280;19836;55.812;37.560;2023-09-19T12:17:20;99766.91;;;24.96;47.05
33496;BME280;19836;55.812;37.560;2023-09-19T12:19:55;99763.59;;;25.62;46.60
33496;BME280;19836;55.812;37.560;2023-09-19T12:22:21;99762.94;;;25.89;45.77
33496;BME280;19836;55.812;37.560;2023-09-19T12:24:47;99758.22;;;25.51;46.33
33496;BME280;19836;55.812;37.560;2023-09-19T12:27:14;99748.06;;;25.12;47.14
33496;BME280;19836;55.812;37.560;2023-09-19T12:29:44;99749.69;;;24.94;47.83
33496;BME280;19836;55.812;37.560;2023-09-19T12:32:11;99750.69;;;24.93;48.01
33496;BME280;19836;55.812;37.560;2023-09-19T12:34:40;99750.31;;;24.77;48.34
33496;BME280;19836;55.812;37.560;2023-09-19T12:37:10;99739.16;;;24.69;48.59
33496;BME280;19836;55.812;37.560;2023-09-19T12:39:53;99739.69;;;24.63;48.74
33496;BME280;19836;55.812;37.560;2023-09-19T12:42:26;99735.03;;;25.25;48.17
33496;BME280;19836;55.812;37.560;2023-09-19T12:44:58;99734.94;;;25.95;46.96
33496;BME280;19836;55.812;37.560;2023-09-19T12:47:28;99730.19;;;26.16;46.53
33496;BME280;19836;55.812;37.560;2023-09-19T12:50:15;99732.78;;;26.08;46.61
33496;BME280;19836;55.812;37.560;2023-09-19T12:53:01;99728.16;;;26.08;46.42
33496;BME280;19836;55.812;37.560;2023-09-19T12:55:29;99721.22;;;26.23;46.19
33496;BME280;19836;55.812;37.560;2023-09-19T12:58:14;99728.47;;;26.34;45.60
33496;BME280;19836;55.812;37.560;2023-09-19T13:00:42;99720.25;;;25.75;46.22
33496;BME280;19836;55.812;37.560;2023-09-19T13:03:27;99717.72;;;25.34;47.05
33496;BME280;19836;55.812;37.560;2023-09-19T13:06:02;99710.38;;;25.14;47.76
33496;BME280;19836;55.812;37.560;2023-09-19T13:08:35;99711.97;;;25.37;47.65
33496;BME280;19836;55.812;37.560;2023-09-19T13:11:15;99711.81;;;25.39;47.69
33496;BME280;19836;55.812;37.560;2023-09-19T13:13:45;99706.66;;;25.64;47.54
33496;BME280;19836;55.812;37.560;2023-09-19T13:16:15;99709.34;;;25.94;47.04
33496;BME280;19836;55.812;37.560;2023-09-19T13:18:50;99704.38;;;25.69;47.24
33496;BME280;19836;55.812;37.560;2023-09-19T13:21:26;99708.78;;;26.38;46.64
33496;BME280;19836;55.812;37.560;2023-09-19T13:24:18;99708.31;;;27.98;44.23
33496;BME280;19836;55.812;37.560;2023-09-19T13:26:42;99693.09;;;29.15;41.67
33496;BME280;19836;55.812;37.560;2023-09-19T13:29:08;99699.09;;;29.44;41.01
33496;BME280;19836;55.812;37.560;2023-09-19T13:31:34;99694.88;;;28.73;41.05
33496;BME280;19836;55.812;37.560;2023-09-19T13:34:00;99699.16;;;27.53;42.93
33496;BME280;19836;55.812;37.560;2023-09-19T13:36:26;99692.28;;;26.57;44.64
33496;BME280;19836;55.812;37.560;2023-09-19T13:38:52;99694.91;;;25.92;45.87
33496;BME280;19836;55.812;37.560;2023-09-19T13:41:19;99683.25;;;25.41;47.34
33496;BME280;19836;55.812;37.560;2023-09-19T13:43:44;99689.44;;;25.04;48.19
33496;BME280;19836;55.812;37.560;2023-09-19T13:46:14;99675.66;;;24.64;48.74
33496;BME280;19836;55.812;37.560;2023-09-19T13:48:42;99676.88;;;24.30;49.86
33496;BME280;19836;55.812;37.560;2023-09-19T13:51:08;99674.34;;;24.07;50.81
33496;BME280;19836;55.812;37.560;2023-09-19T13:53:34;99680.03;;;23.94;51.66
33496;BME280;19836;55.812;37.560;2023-09-19T13:56:00;99678.19;;;23.84;51.85
33496;BME280;19836;55.812;37.560;2023-09-19T13:58:26;99670.63;;;23.76;52.16
33496;BME280;19836;55.812;37.560;2023-09-19T14:00:53;99678.97;;;23.75;52.61
33496;BME280;19836;55.812;37.560;2023-09-19T14:03:21;99670.50;;;23.89;52.43
33496;BME280;19836;55.812;37.560;2023-09-19T14:05:47;99673.31;;;23.87;52.60
33496;BME280;19836;55.812;37.560;2023-09-19T14:08:14;99674.09;;;23.78;52.63
33496;BME280;19836;55.812;37.560;2023-09-19T14:10:40;99661.81;;;23.73;52.74
33496;BME280;19836;55.812;37.560;2023-09-19T14:13:08;99668.66;;;23.67;53.01
33496;BME280;19836;55.812;37.560;2023-09-19T14:15:37;99672.78;;;23.62;53.12
33496;BME280;19836;55.812;37.560;2023-09-19T14:18:04;99668.47;;;23.48;53.36
33496;BME280;19836;55.812;37.560;2023-09-19T14:20:30;99667.28;;;23.30;54.30
33496;BME280;19836;55.812;37.560;2023-09-19T14:22:57;99663.06;;;23.15;54.86
33496;BME280;19836;55.812;37.560;2023-09-19T14:25:24;99656.34;;;23.08;55.39
33496;BME280;19836;55.812;37.560;2023-09-19T14:27:51;99661.81;;;23.08;55.35
33496;BME280;19836;55.812;37.560;2023-09-19T14:30:17;99664.44;;;22.99;55.86
33496;BME280;19836;55.812;37.560;2023-09-19T14:32:43;99652.03;;;22.84;56.26
33496;BME280;19836;55.812;37.560;2023-09-19T14:35:09;99653.38;;;22.67;57.15
33496;BME280;19836;55.812;37.560;2023-09-19T14:37:36;99652.78;;;22.53;57.65
33496;BME280;19836;55.812;37.560;2023-09-19T14:40:04;99656.56;;;22.39;58.36
33496;BME280;19836;55.812;37.560;2023-09-19T14:42:34;99650.09;;;22.29;58.88
33496;BME280;19836;55.812;37.560;2023-09-19T14:45:02;99650.31;;;22.15;59.32
33496;BME280;19836;55.812;37.560;2023-09-19T14:47:30;99653.78;;;22.06;59.97
33496;BME280;19836;55.812;37.560;2023-09-19T14:50:03;99653.25;;;22.01;59.76
33496;BME280;19836;55.812;37.560;2023-09-19T14:52:35;99653.63;;;21.97;59.84
33496;BME280;19836;55.812;37.560;2023-09-19T14:55:05;99655.06;;;21.90;59.94
33496;BME280;19836;55.812;37.560;2023-09-19T14:57:31;99651.94;;;21.83;59.90
33496;BME280;19836;55.812;37.560;2023-09-19T14:59:58;99649.94;;;21.74;60.23
33496;BME280;19836;55.812;37.560;2023-09-19T15:02:24;99656.81;;;21.67;60.38
33496;BME280;19836;55.812;37.560;2023-09-19T15:04:52;99658.38;;;21.59;60.88
33496;BME280;19836;55.812;37.560;2023-09-19T15:07:18;99655.50;;;21.49;61.11
33496;BME280;19836;55.812;37.560;2023-09-19T15:09:44;99660.88;;;21.38;61.31
33496;BME280;19836;55.812;37.560;2023-09-19T15:12:11;99658.09;;;21.27;61.97
33496;BME280;19836;55.812;37.560;2023-09-19T15:14:41;99657.03;;;21.17;62.59
33496;BME280;19836;55.812;37.560;2023-09-19T15:17:16;99660.44;;;21.08;62.88
33496;BME280;19836;55.812;37.560;2023-09-19T15:19:46;99662.09;;;20.98;63.47
33496;BME280;19836;55.812;37.560;2023-09-19T15:22:12;99649.25;;;20.88;63.54
33496;BME280;19836;55.812;37.560;2023-09-19T15:24:38;99649.81;;;20.80;64.18
33496;BME280;19836;55.812;37.560;2023-09-19T15:27:07;99650.47;;;20.71;64.06
33496;BME280;19836;55.812;37.560;2023-09-19T15:29:33;99651.25;;;20.61;64.64
33496;BME280;19836;55.812;37.560;2023-09-19T15:32:02;99646.50;;;20.52;64.68
33496;BME280;19836;55.812;37.560;2023-09-19T15:34:29;99649.75;;;20.44;65.19
33496;BME280;19836;55.812;37.560;2023-09-19T15:36:55;99650.50;;;20.34;65.16
33496;BME280;19836;55.812;37.560;2023-09-19T15:39:22;99644.88;;;20.24;65.21
33496;BME280;19836;55.812;37.560;2023-09-19T15:41:48;99644.31;;;20.19;65.16
33496;BME280;19836;55.812;37.560;2023-09-19T15:44:18;99643.00;;;20.12;65.45
33496;BME280;19836;55.812;37.560;2023-09-19T15:46:45;99638.19;;;20.03;65.93
33496;BME280;19836;55.812;37.560;2023-09-19T15:49:34;99641.44;;;19.96;66.46
33496;BME280;19836;55.812;37.560;2023-09-19T15:52:03;99637.47;;;19.87;66.46
33496;BME280;19836;55.812;37.560;2023-09-19T15:54:30;99645.31;;;19.79;66.92
33496;BME280;19836;55.812;37.560;2023-09-19T15:57:02;99639.44;;;19.73;67.13
33496;BME280;19836;55.812;37.560;2023-09-19T15:59:30;99645.41;;;19.65;67.19
33496;BME280;19836;55.812;37.560;2023-09-19T16:01:57;99641.38;;;19.58;67.51
33496;BME280;19836;55.812;37.560;2023-09-19T16:04:23;99640.91;;;19.52;67.55
33496;BME280;19836;55.812;37.560;2023-09-19T16:06:50;99647.63;;;19.46;67.83
33496;BME280;19836;55.812;37.560;2023-09-19T16:09:18;99651.31;;;19.45;68.26
33496;BME280;19836;55.812;37.560;2023-09-19T16:11:44;99649.88;;;19.40;68.26
33496;BME280;19836;55.812;37.560;2023-09-19T16:14:13;99647.38;;;19.37;68.87
33496;BME280;19836;55.812;37.560;2023-09-19T16:16:41;99645.81;;;19.33;68.87
33496;BME280;19836;55.812;37.560;2023-09-19T16:19:07;99646.91;;;19.30;68.72
33496;BME280;19836;55.812;37.560;2023-09-19T16:21:37;99644.38;;;19.27;68.70
33496;BME280;19836;55.812;37.560;2023-09-19T16:24:03;99649.06;;;19.25;68.97
33496;BME280;19836;55.812;37.560;2023-09-19T16:26:34;99651.97;;;19.22;69.00
33496;BME280;19836;55.812;37.560;2023-09-19T16:29:15;99656.59;;;19.20;69.27
33496;BME280;19836;55.812;37.560;2023-09-19T16:31:41;99648.47;;;19.20;69.50
33496;BME280;19836;55.812;37.560;2023-09-19T16:34:08;99653.00;;;19.20;69.43
33496;BME280;19836;55.812;37.560;2023-09-19T16:36:35;99652.16;;;19.19;69.39
33496;BME280;19836;55.812;37.560;2023-09-19T16:39:01;99656.03;;;19.15;69.61
33496;BME280;19836;55.812;37.560;2023-09-19T16:41:29;99658.19;;;19.10;69.73
33496;BME280;19836;55.812;37.560;2023-09-19T16:43:56;99661.31;;;19.04;69.94
33496;BME280;19836;55.812;37.560;2023-09-19T16:46:26;99657.06;;;19.00;70.22
33496;BME280;19836;55.812;37.560;2023-09-19T16:48:54;99661.41;;;19.03;70.26
33496;BME280;19836;55.812;37.560;2023-09-19T16:51:21;99662.38;;;19.02;70.52
33496;BME280;19836;55.812;37.560;2023-09-19T16:58:04;99665.78;;;18.91;70.40
33496;BME280;19836;55.812;37.560;2023-09-19T17:08:43;99673.00;;;18.78;70.95
33496;BME280;19836;55.812;37.560;2023-09-19T18:40:27;99658.34;;;17.81;74.15
33496;BME280;19836;55.812;37.560;2023-09-19T18:42:55;99663.97;;;17.78;74.37
33496;BME280;19836;55.812;37.560;2023-09-19T18:45:21;99656.22;;;17.72;74.74
33496;BME280;19836;55.812;37.560;2023-09-19T18:47:51;99664.38;;;17.72;74.90
33496;BME280;19836;55.812;37.560;2023-09-19T18:50:19;99656.22;;;17.72;74.30
33496;BME280;19836;55.812;37.560;2023-09-19T18:52:45;99669.06;;;17.69;74.74
33496;BME280;19836;55.812;37.560;2023-09-19T18:55:14;99661.13;;;17.66;74.70
33496;BME280;19836;55.812;37.560;2023-09-19T18:58:18;99660.25;;;17.65;74.67
33496;BME280;19836;55.812;37.560;2023-09-19T19:04:49;99669.72;;;17.58;74.18
33496;BME280;19836;55.812;37.560;2023-09-19T19:07:16;99661.78;;;17.55;74.37
33496;BME280;19836;55.812;37.560;2023-09-19T19:10:16;99663.34;;;17.59;74.40
33496;BME280;19836;55.812;37.560;2023-09-19T19:13:09;99660.00;;;17.70;73.89
33496;BME280;19836;55.812;37.560;2023-09-19T19:15:36;99648.41;;;17.82;73.22
33496;BME280;19836;55.812;37.560;2023-09-19T19:18:02;99648.53;;;17.94;72.19
33496;BME280;19836;55.812;37.560;2023-09-19T19:20:28;99645.63;;;18.11;71.21
33496;BME280;19836;55.812;37.560;2023-09-19T19:22:55;99644.09;;;18.21;70.66
33496;BME280;19836;55.812;37.560;2023-09-19T19:25:21;99655.91;;;18.20;70.24
33496;BME280;19836;55.812;37.560;2023-09-19T19:27:54;99653.78;;;18.25;69.89
33496;BME280;19836;55.812;37.560;2023-09-19T19:30:23;99654.47;;;18.29;69.16
33496;BME280;19836;55.812;37.560;2023-09-19T19:32:49;99655.34;;;18.29;68.63
33496;BME280;19836;55.812;37.560;2023-09-19T19:35:15;99655.16;;;18.32;68.02
33496;BME280;19836;55.812;37.560;2023-09-19T19:37:43;99649.56;;;18.35;67.89
33496;BME280;19836;55.812;37.560;2023-09-19T19:40:10;99658.09;;;18.43;67.38
33496;BME280;19836;55.812;37.560;2023-09-19T19:42:37;99647.81;;;18.48;66.67
33496;BME280;19836;55.812;37.560;2023-09-19T19:45:04;99646.06;;;18.47;66.18
33496;BME280;19836;55.812;37.560;2023-09-19T19:47:30;99655.09;;;18.48;66.07
33496;BME280;19836;55.812;37.560;2023-09-19T19:49:57;99646.06;;;18.47;66.07
33496;BME280;19836;55.812;37.560;2023-09-19T19:52:29;99645.97;;;18.49;65.58
33496;BME280;19836;55.812;37.560;2023-09-19T19:55:01;99642.97;;;18.53;65.47
33496;BME280;19836;55.812;37.560;2023-09-19T19:57:29;99648.00;;;18.59;65.42
33496;BME280;19836;55.812;37.560;2023-09-19T20:00:05;99652.28;;;18.49;65.18